createdAt,value
2023-02-14T00:01:09.708Z,100870.78
2023-02-14T00:03:36.968Z,100867.41
2023-02-14T00:06:13.036Z,100858.75
2023-02-14T00:08:44.150Z,100862.16
2023-02-14T00:11:12.981Z,100856.94
2023-02-14T00:13:39.869Z,100856.13
2023-02-14T00:16:06.985Z,100859.56
2023-02-14T00:18:52.719Z,100848.41
2023-02-14T00:21:19.559Z,100862.78
2023-02-14T00:23:46.363Z,100829.25
2023-02-14T00:26:15.037Z,100858.50
2023-02-14T00:28:42.263Z,100865.28
2023-02-14T00:31:09.646Z,100861.00
2023-02-14T00:33:36.675Z,100865.31
2023-02-14T00:36:07.629Z,100857.63
2023-02-14T00:38:35.056Z,100845.53
2023-02-14T00:41:02.229Z,100857.63
2023-02-14T00:43:29.571Z,100846.41
2023-02-14T00:45:56.611Z,100857.44
2023-02-14T00:48:23.520Z,100860.75
2023-02-14T00:50:50.336Z,100858.22
2023-02-14T00:53:17.129Z,100864.22
2023-02-14T00:55:46.524Z,100865.09
2023-02-14T00:58:13.428Z,100852.19
2023-02-14T01:00:40.458Z,100853.03
2023-02-14T01:03:07.501Z,100860.72
2023-02-14T01:05:34.473Z,100830.56
2023-02-14T01:08:01.280Z,100863.19
2023-02-14T01:10:28.202Z,100864.72
2023-02-14T01:12:55.124Z,100840.81
2023-02-14T01:15:22.351Z,100865.69
2023-02-14T01:17:49.325Z,100863.09
2023-02-14T01:20:16.495Z,100831.25
2023-02-14T01:22:43.347Z,100860.50
2023-02-14T01:25:10.410Z,100856.16
2023-02-14T01:27:37.380Z,100861.28
2023-02-14T01:30:05.130Z,100787.28
2023-02-14T01:32:33.206Z,100860.34
2023-02-14T01:35:00.692Z,100859.53
2023-02-14T01:37:27.821Z,100850.81
2023-02-14T01:39:54.671Z,100852.47
2023-02-14T01:42:21.547Z,100858.50
2023-02-14T01:44:48.271Z,100860.25
2023-02-14T01:47:16.494Z,100856.84
2023-02-14T01:49:52.940Z,100837.16
2023-02-14T01:52:29.860Z,100854.28
2023-02-14T01:55:03.876Z,100845.63
2023-02-14T01:57:42.075Z,100859.38
2023-02-14T02:00:28.928Z,100851.69
2023-02-14T02:02:59.045Z,100853.38
2023-02-14T02:05:27.368Z,100852.56
2023-02-14T02:07:57.743Z,100830.19
2023-02-14T02:10:24.911Z,100831.09
2023-02-14T02:12:53.690Z,100848.19
2023-02-14T02:15:24.033Z,100854.28
2023-02-14T02:18:05.567Z,100817.41
2023-02-14T02:20:51.191Z,100838.94
2023-02-14T02:24:02.779Z,100837.13
2023-02-14T02:27:14.326Z,100844.75
2023-02-14T02:29:56.167Z,100837.16
2023-02-14T02:32:32.020Z,100839.69
2023-02-14T02:35:24.520Z,100842.91
2023-02-14T02:38:25.303Z,100843.03
2023-02-14T02:41:21.620Z,100851.50
2023-02-14T02:44:06.454Z,100849.69
2023-02-14T02:46:50.154Z,100831.59
2023-02-14T02:49:39.604Z,100849.56
2023-02-14T02:52:39.315Z,100824.59
2023-02-14T02:55:53.860Z,100820.25
2023-02-14T02:58:23.011Z,100783.31
2023-02-14T03:00:53.494Z,100816.75
2023-02-14T03:03:44.220Z,100808.97
2023-02-14T03:06:11.081Z,100838.06
2023-02-14T03:08:37.923Z,100845.91
2023-02-14T03:11:05.647Z,100837.31
2023-02-14T03:14:22.869Z,100839.84
2023-02-14T03:17:04.509Z,100843.19
2023-02-14T03:20:17.549Z,100850.78
2023-02-14T03:23:00.663Z,100846.44
2023-02-14T03:25:51.358Z,100845.56
2023-02-14T03:28:38.852Z,100854.91
2023-02-14T03:31:18.487Z,100848.09
2023-02-14T03:34:00.564Z,100851.56
2023-02-14T03:36:39.764Z,100848.09
2023-02-14T03:39:17.235Z,100842.13
2023-02-14T03:41:53.879Z,100837.91
2023-02-14T03:44:28.416Z,100843.91
2023-02-14T03:47:04.969Z,100835.28
2023-02-14T03:49:38.658Z,100827.53
2023-02-14T03:52:07.099Z,100830.13
2023-02-14T03:54:35.697Z,100846.34
2023-02-14T03:57:20.031Z,100806.75
2023-02-14T03:59:47.821Z,100832.50
2023-02-14T04:02:23.794Z,100843.69
2023-02-14T04:04:52.537Z,100836.03
2023-02-14T04:07:22.168Z,100830.94
2023-02-14T04:09:49.957Z,100829.16
2023-02-14T04:12:26.519Z,100829.97
2023-02-14T04:14:59.378Z,100835.84
2023-02-14T04:17:44.657Z,100828.06
2023-02-14T04:20:11.877Z,100817.03
2023-02-14T04:22:38.678Z,100829.06
2023-02-14T04:25:05.776Z,100800.75
2023-02-14T04:27:32.730Z,100830.63
2023-02-14T04:29:59.539Z,100824.69
2023-02-14T04:32:26.560Z,100825.53
2023-02-14T04:34:53.738Z,100824.75
2023-02-14T04:37:20.890Z,100808.31
2023-02-14T04:39:47.745Z,100823.03
2023-02-14T04:42:14.648Z,100822.25
2023-02-14T04:44:42.086Z,100818.75
2023-02-14T04:47:09.131Z,100799.81
2023-02-14T04:49:36.765Z,100826.47
2023-02-14T04:52:04.463Z,100818.81
2023-02-14T04:54:31.661Z,100821.38
2023-02-14T04:56:58.631Z,100819.66
2023-02-14T04:59:25.706Z,100810.16
2023-02-14T05:01:53.335Z,100819.53
2023-02-14T05:04:20.659Z,100824.56
2023-02-14T05:06:47.552Z,100820.38
2023-02-14T05:09:14.376Z,100805.78
2023-02-14T05:11:41.169Z,100823.63
2023-02-14T05:14:08.083Z,100823.56
2023-02-14T05:16:35.024Z,100816.75
2023-02-14T05:19:01.906Z,100815.06
2023-02-14T05:21:28.816Z,100812.31
2023-02-14T05:23:55.643Z,100816.69
2023-02-14T05:26:22.588Z,100809.78
2023-02-14T05:28:49.395Z,100805.50
2023-02-14T05:31:16.771Z,100811.50
2023-02-14T05:33:43.780Z,100814.97
2023-02-14T05:36:11.011Z,100792.47
2023-02-14T05:38:37.904Z,100819.06
2023-02-14T05:41:04.925Z,100814.78
2023-02-14T05:43:31.778Z,100787.94
2023-02-14T05:45:59.224Z,100824.84
2023-02-14T05:48:26.201Z,100826.59
2023-02-14T05:50:53.308Z,100832.63
2023-02-14T05:53:20.174Z,100831.81
2023-02-14T05:55:47.492Z,100824.94
2023-02-14T05:58:14.465Z,100836.09
2023-02-14T06:00:41.676Z,100840.28
2023-02-14T06:03:08.832Z,100835.16
2023-02-14T06:05:35.849Z,100834.25
2023-02-14T06:08:02.759Z,100835.94
2023-02-14T06:10:29.782Z,100820.63
2023-02-14T06:12:56.603Z,100844.44
2023-02-14T06:15:24.048Z,100841.94
2023-02-14T06:17:53.478Z,100827.38
2023-02-14T06:20:21.345Z,100847.06
2023-02-14T06:22:48.310Z,100845.34
2023-02-14T06:25:15.178Z,100839.28
2023-02-14T06:27:42.385Z,100846.94
2023-02-14T06:30:10.601Z,100825.50
2023-02-14T06:32:37.474Z,100842.75
2023-02-14T06:35:05.024Z,100841.06
2023-02-14T06:37:31.913Z,100833.16
2023-02-14T06:39:58.696Z,100841.91
2023-02-14T06:42:25.916Z,100832.38
2023-02-14T06:44:52.732Z,100833.09
2023-02-14T06:47:19.648Z,100845.94
2023-02-14T06:49:46.422Z,100861.47
2023-02-14T06:52:13.253Z,100856.28
2023-02-14T06:54:41.013Z,100866.53
2023-02-14T06:57:07.895Z,100868.13
2023-02-14T06:59:35.132Z,100845.88
2023-02-14T07:02:02.241Z,100864.78
2023-02-14T07:04:29.273Z,100858.06
2023-02-14T07:06:56.155Z,100862.16
2023-02-14T07:09:23.486Z,100855.41
2023-02-14T07:11:50.344Z,100860.44
2023-02-14T07:14:17.225Z,100841.69
2023-02-14T07:16:44.166Z,100852.13
2023-02-14T07:19:11.075Z,100859.81
2023-02-14T07:21:37.977Z,100837.53
2023-02-14T07:24:04.824Z,100853.13
2023-02-14T07:26:31.650Z,100816.09
2023-02-14T07:28:58.549Z,100858.38
2023-02-14T07:31:25.584Z,100854.97
2023-02-14T07:33:52.915Z,100857.59
2023-02-14T07:36:19.785Z,100850.84
2023-02-14T07:38:46.620Z,100822.47
2023-02-14T07:41:13.469Z,100846.66
2023-02-14T07:43:40.287Z,100844.09
2023-02-14T07:46:07.205Z,100851.03
2023-02-14T07:48:34.749Z,100849.34
2023-02-14T07:51:02.507Z,100841.59
2023-02-14T07:53:29.721Z,100851.69
2023-02-14T07:55:56.566Z,100833.69
2023-02-14T07:58:23.585Z,100852.81
2023-02-14T08:00:51.217Z,100841.69
2023-02-14T08:03:18.334Z,100823.72
2023-02-14T08:05:45.159Z,100849.63
2023-02-14T08:08:11.927Z,100842.09
2023-02-14T08:10:38.704Z,100825.00
2023-02-14T08:13:05.555Z,100843.09
2023-02-14T08:15:53.414Z,100841.47
2023-02-14T08:18:23.190Z,100838.19
2023-02-14T08:20:50.327Z,100831.38
2023-02-14T08:23:19.291Z,100831.47
2023-02-14T08:25:48.955Z,100834.88
2023-02-14T08:28:16.262Z,100836.72
2023-02-14T08:30:45.016Z,100835.00
2023-02-14T08:33:12.106Z,100824.84
2023-02-14T08:35:39.183Z,100838.69
2023-02-14T08:38:06.417Z,100842.16
2023-02-14T08:40:36.203Z,100839.66
2023-02-14T08:43:05.546Z,100840.56
2023-02-14T08:45:32.851Z,100833.75
2023-02-14T08:48:11.643Z,100820.03
2023-02-14T08:50:39.784Z,100826.22
2023-02-14T08:53:12.104Z,100787.69
2023-02-14T08:55:40.002Z,100817.84
2023-02-14T08:58:07.831Z,100813.53
2023-02-14T09:00:35.167Z,100805.84
2023-02-14T09:03:02.191Z,100826.47
2023-02-14T09:05:29.235Z,100816.28
2023-02-14T09:07:56.690Z,100819.75
2023-02-14T09:10:25.043Z,100813.78
2023-02-14T09:12:52.373Z,100812.25
2023-02-14T09:15:19.509Z,100809.72
2023-02-14T09:17:47.365Z,100805.41
2023-02-14T09:20:15.712Z,100812.34
2023-02-14T09:22:42.694Z,100775.56
2023-02-14T09:25:09.710Z,100795.44
2023-02-14T09:27:37.026Z,100795.50
2023-02-14T09:30:06.621Z,100798.91
2023-02-14T09:32:33.879Z,100793.78
2023-02-14T09:35:19.759Z,100785.28
2023-02-14T09:38:04.826Z,100784.47
2023-02-14T09:40:34.212Z,100788.00
2023-02-14T09:43:22.166Z,100790.59
2023-02-14T09:45:55.060Z,100761.44
2023-02-14T09:48:38.358Z,100783.00
2023-02-14T09:51:15.417Z,100789.00
2023-02-14T09:53:57.073Z,100779.69
2023-02-14T09:56:54.242Z,100766.78
2023-02-14T09:59:27.548Z,100775.63
2023-02-14T10:02:26.734Z,100772.13
2023-02-14T10:05:22.100Z,100777.38
2023-02-14T10:08:05.715Z,100771.44
2023-02-14T10:10:46.808Z,100769.81
2023-02-14T10:13:41.205Z,100769.03
2023-02-14T10:16:44.244Z,100763.03
2023-02-14T10:19:52.357Z,100757.16
2023-02-14T10:22:25.039Z,100753.69
2023-02-14T10:25:01.761Z,100746.03
2023-02-14T10:27:44.649Z,100745.94
2023-02-14T10:30:22.451Z,100743.47
2023-02-14T10:33:25.573Z,100746.03
2023-02-14T10:36:09.987Z,100727.22
2023-02-14T10:38:51.502Z,100736.69
2023-02-14T10:42:11.578Z,100734.13
2023-02-14T10:44:58.808Z,100716.22
2023-02-14T10:48:06.247Z,100718.81
2023-02-14T10:50:52.404Z,100725.75
2023-02-14T10:54:06.114Z,100721.50
2023-02-14T10:56:39.746Z,100713.03
2023-02-14T10:59:25.241Z,100706.19
2023-02-14T11:01:55.158Z,100701.91
2023-02-14T11:04:24.800Z,100699.41
2023-02-14T11:06:52.721Z,100700.34
2023-02-14T11:09:20.926Z,100699.56
2023-02-14T11:11:54.457Z,100689.28
2023-02-14T11:14:33.188Z,100691.06
2023-02-14T11:17:26.229Z,100684.28
2023-02-14T11:20:06.261Z,100652.63
2023-02-14T11:22:35.168Z,100673.22
2023-02-14T11:25:22.528Z,100648.41
2023-02-14T11:28:05.497Z,100669.81
2023-02-14T11:30:41.010Z,100643.34
2023-02-14T11:33:23.796Z,100655.38
2023-02-14T11:35:54.127Z,100664.81
2023-02-14T11:38:40.594Z,100654.53
2023-02-14T11:41:11.899Z,100639.94
2023-02-14T11:43:42.568Z,100647.63
2023-02-14T11:46:24.420Z,100637.31
2023-02-14T11:49:01.423Z,100639.09
2023-02-14T11:51:37.891Z,100625.28
2023-02-14T11:54:06.199Z,100604.72
2023-02-14T11:57:27.684Z,100620.91
2023-02-14T11:59:57.182Z,100608.91
2023-02-14T12:02:32.473Z,100598.69
2023-02-14T12:05:05.639Z,100587.59
2023-02-14T12:07:38.057Z,100599.53
2023-02-14T12:10:31.151Z,100589.94
2023-02-14T12:13:10.063Z,100596.66
2023-02-14T12:15:43.903Z,100586.44
2023-02-14T12:18:41.566Z,100590.81
2023-02-14T12:21:40.088Z,100571.97
2023-02-14T12:24:30.477Z,100571.16
2023-02-14T12:27:22.475Z,100564.34
2023-02-14T12:30:01.405Z,100568.38
2023-02-14T12:32:30.902Z,100548.41
2023-02-14T12:35:14.715Z,100559.22
2023-02-14T12:38:30.404Z,100546.38
2023-02-14T12:41:40.941Z,100556.94
2023-02-14T12:44:43.670Z,100546.41
2023-02-14T12:47:13.338Z,100541.38
2023-02-14T12:50:20.461Z,100539.63
2023-02-14T12:53:01.693Z,100537.97
2023-02-14T12:55:48.895Z,100536.19
2023-02-14T12:58:46.629Z,100532.72
2023-02-14T13:01:36.761Z,100529.19
2023-02-14T13:04:35.139Z,100522.34
2023-02-14T13:07:25.119Z,100518.75
2023-02-14T13:10:12.446Z,100504.16
2023-02-14T13:13:07.833Z,100510.16
2023-02-14T13:16:12.847Z,100504.09
2023-02-14T13:19:01.690Z,100492.97
2023-02-14T13:21:35.770Z,100491.13
2023-02-14T13:24:17.009Z,100489.41
2023-02-14T13:26:50.141Z,100467.19
2023-02-14T13:29:23.511Z,100478.16
2023-02-14T13:32:02.777Z,100469.50
2023-02-14T13:34:50.501Z,100473.59
2023-02-14T13:37:21.895Z,100477.03
2023-02-14T13:39:54.905Z,100479.47
2023-02-14T13:42:59.016Z,100445.94
2023-02-14T13:45:37.496Z,100468.09
2023-02-14T13:48:20.306Z,100469.75
2023-02-14T13:51:08.221Z,100462.88
2023-02-14T13:53:42.749Z,100449.91
2023-02-14T13:56:12.552Z,100460.03
2023-02-14T13:58:54.310Z,100464.38
2023-02-14T14:01:39.185Z,100456.69
2023-02-14T14:04:28.185Z,100453.97
2023-02-14T14:07:03.752Z,100454.66
2023-02-14T14:09:42.719Z,100458.06
2023-02-14T14:12:27.820Z,100458.91
2023-02-14T14:15:06.977Z,100457.06
2023-02-14T14:17:46.067Z,100456.19
2023-02-14T14:20:29.829Z,100453.56
2023-02-14T14:22:58.768Z,100451.69
2023-02-14T14:25:33.354Z,100446.53
2023-02-14T14:28:00.786Z,100436.25
2023-02-14T14:30:35.678Z,100439.72
2023-02-14T14:33:25.903Z,100436.31
2023-02-14T14:36:22.332Z,100441.41
2023-02-14T14:38:53.564Z,100434.50
2023-02-14T14:41:29.043Z,100435.28
2023-02-14T14:43:56.039Z,100436.00
2023-02-14T14:46:23.695Z,100432.56
2023-02-14T14:48:54.488Z,100446.31
2023-02-14T14:51:34.053Z,100429.94
2023-02-14T14:54:15.571Z,100391.50
2023-02-14T14:57:01.453Z,100433.19
2023-02-14T14:59:40.557Z,100432.34
2023-02-14T15:02:29.915Z,100427.06
2023-02-14T15:04:56.862Z,100411.53
2023-02-14T15:07:33.769Z,100422.75
2023-02-14T15:10:01.249Z,100417.47
2023-02-14T15:12:48.191Z,100426.00
2023-02-14T15:15:18.046Z,100412.41
2023-02-14T15:17:46.103Z,100421.75
2023-02-14T15:20:22.946Z,100425.06
2023-02-14T15:22:52.050Z,100404.53
2023-02-14T15:25:32.244Z,100429.22
2023-02-14T15:27:59.522Z,100403.63
2023-02-14T15:30:33.961Z,100430.00
2023-02-14T15:33:03.436Z,100424.13
2023-02-14T15:35:36.951Z,100428.25
2023-02-14T15:38:06.947Z,100435.16
2023-02-14T15:40:35.682Z,100421.34
2023-02-14T15:43:32.854Z,100423.00
2023-02-14T15:46:26.371Z,100421.31
2023-02-14T15:48:55.922Z,100426.50
2023-02-14T15:51:30.093Z,100424.75
2023-02-14T15:54:03.324Z,100423.09
2023-02-14T15:56:48.864Z,100410.16
2023-02-14T15:59:24.033Z,100426.47
2023-02-14T16:02:20.761Z,100417.91
2023-02-14T16:04:47.706Z,100428.28
2023-02-14T16:07:29.582Z,100413.84
2023-02-14T16:10:26.387Z,100425.16
2023-02-14T16:13:09.654Z,100419.97
2023-02-14T16:15:42.051Z,100426.13
2023-02-14T16:18:32.863Z,100427.09
2023-02-14T16:21:27.641Z,100423.59
2023-02-14T16:24:10.795Z,100423.59
2023-02-14T16:26:42.008Z,100423.81
2023-02-14T16:29:12.202Z,100414.53
2023-02-14T16:32:14.736Z,100436.66
2023-02-14T16:34:41.038Z,100430.78
2023-02-14T16:37:22.446Z,100428.22
2023-02-14T16:39:51.506Z,100431.00
2023-02-14T16:42:19.229Z,100435.22
2023-02-14T16:44:47.852Z,100431.97
2023-02-14T16:47:17.192Z,100431.25
2023-02-14T16:49:44.312Z,100436.31
2023-02-14T16:52:20.685Z,100419.41
2023-02-14T16:54:48.644Z,100433.03
2023-02-14T16:57:22.908Z,100439.97
2023-02-14T16:59:50.616Z,100441.78
2023-02-14T17:02:19.032Z,100452.22
2023-02-14T17:04:46.010Z,100447.16
2023-02-14T17:07:15.495Z,100458.44
2023-02-14T17:09:53.430Z,100442.22
2023-02-14T17:12:28.061Z,100456.59
2023-02-14T17:14:59.290Z,100451.47
2023-02-14T17:17:26.615Z,100459.16
2023-02-14T17:19:53.602Z,100461.78
2023-02-14T17:22:20.822Z,100466.94
2023-02-14T17:24:47.668Z,100465.28
2023-02-14T17:27:14.712Z,100465.34
2023-02-14T17:29:41.849Z,100466.25
2023-02-14T17:32:13.761Z,100468.00
2023-02-14T17:34:41.091Z,100468.91
2023-02-14T17:37:07.958Z,100474.09
2023-02-14T17:39:35.060Z,100476.72
2023-02-14T17:42:01.955Z,100460.38
2023-02-14T17:44:32.343Z,100469.81
2023-02-14T17:46:59.160Z,100460.25
2023-02-14T17:49:26.710Z,100457.00
2023-02-14T17:51:53.691Z,100460.56
2023-02-14T17:54:20.569Z,100460.47
2023-02-14T17:56:47.390Z,100468.16
2023-02-14T17:59:14.213Z,100465.56
2023-02-14T18:01:41.106Z,100463.94
2023-02-14T18:04:08.088Z,100466.59
2023-02-14T18:06:35.361Z,100466.69
2023-02-14T18:09:06.223Z,100468.31
2023-02-14T18:11:33.099Z,100472.66
2023-02-14T18:14:01.579Z,100464.09
2023-02-14T18:16:28.707Z,100476.13
2023-02-14T18:18:55.541Z,100478.75
2023-02-14T18:21:24.457Z,100474.47
2023-02-14T18:23:51.957Z,100472.84
2023-02-14T18:26:19.506Z,100470.28
2023-02-14T18:28:46.442Z,100472.94
2023-02-14T18:31:16.683Z,100485.88
2023-02-14T18:33:45.235Z,100474.75
2023-02-14T18:36:15.621Z,100473.88
2023-02-14T18:38:44.882Z,100472.16
2023-02-14T18:41:15.694Z,100472.25
2023-02-14T18:43:44.411Z,100475.72
2023-02-14T18:46:17.688Z,100451.88
2023-02-14T18:48:45.007Z,100469.84
2023-02-14T18:51:22.241Z,100468.28
2023-02-14T18:53:52.177Z,100456.31
2023-02-14T18:56:22.329Z,100460.53
2023-02-14T18:58:52.829Z,100469.19
2023-02-14T19:01:29.151Z,100464.06
2023-02-14T19:03:59.532Z,100464.19
2023-02-14T19:06:29.462Z,100467.69
2023-02-14T19:08:57.365Z,100462.47
2023-02-14T19:11:31.577Z,100454.06
2023-02-14T19:14:02.097Z,100460.91
2023-02-14T19:16:33.264Z,100462.63
2023-02-14T19:19:02.406Z,100455.78
2023-02-14T19:21:33.998Z,100454.16
2023-02-14T19:24:03.479Z,100456.72
2023-02-14T19:26:34.904Z,100459.41
2023-02-14T19:29:05.458Z,100453.44
2023-02-14T19:31:37.419Z,100453.50
2023-02-14T19:34:06.225Z,100455.31
2023-02-14T19:36:36.349Z,100458.78
2023-02-14T19:39:03.754Z,100427.19
2023-02-14T19:41:34.505Z,100455.41
2023-02-14T19:44:04.673Z,100456.34
2023-02-14T19:46:33.007Z,100456.38
2023-02-14T19:49:01.339Z,100447.03
2023-02-14T19:51:32.271Z,100446.16
2023-02-14T19:54:02.136Z,100433.34
2023-02-14T19:56:32.822Z,100448.75
2023-02-14T19:58:59.858Z,100441.03
2023-02-14T20:01:33.666Z,100442.81
2023-02-14T20:04:01.093Z,100429.16
2023-02-14T20:06:29.410Z,100429.22
2023-02-14T20:08:56.427Z,100435.25
2023-02-14T20:11:49.817Z,100451.53
2023-02-14T20:14:24.520Z,100447.25
2023-02-14T20:16:53.502Z,100444.69
2023-02-14T20:19:24.244Z,100440.41
2023-02-14T20:21:51.500Z,100441.28
2023-02-14T20:24:23.188Z,100423.31
2023-02-14T20:26:51.737Z,100441.31
2023-02-14T20:29:20.980Z,100443.00
2023-02-14T20:31:52.534Z,100430.16
2023-02-14T20:34:20.218Z,100428.50
2023-02-14T20:36:55.701Z,100417.38
2023-02-14T20:39:28.357Z,100424.22
2023-02-14T20:41:55.196Z,100422.56
2023-02-14T20:44:22.525Z,100425.09
2023-02-14T20:46:52.543Z,100426.78
2023-02-14T20:49:25.248Z,100418.22
2023-02-14T20:51:52.481Z,100422.53
2023-02-14T20:54:22.717Z,100422.53
2023-02-14T20:56:50.779Z,100412.28
2023-02-14T20:59:27.189Z,100412.28
2023-02-14T21:01:56.040Z,100407.16
2023-02-14T21:04:24.005Z,100381.56
2023-02-14T21:06:51.332Z,100404.63
2023-02-14T21:09:20.364Z,100379.84
2023-02-14T21:11:47.376Z,100362.78
2023-02-14T21:14:14.540Z,100399.50
2023-02-14T21:16:41.388Z,100390.09
2023-02-14T21:19:08.817Z,100396.97
2023-02-14T21:21:37.632Z,100393.53
2023-02-14T21:24:15.610Z,100395.28
2023-02-14T21:26:43.731Z,100388.41
2023-02-14T21:29:10.849Z,100390.97
2023-02-14T21:31:38.623Z,100386.69
2023-02-14T21:34:05.948Z,100381.56
2023-02-14T21:36:37.294Z,100345.69
2023-02-14T21:39:05.934Z,100373.03
2023-02-14T21:41:34.418Z,100381.59
2023-02-14T21:44:02.513Z,100376.47
2023-02-14T21:46:33.317Z,100376.47
2023-02-14T21:49:20.506Z,100383.31
2023-02-14T21:51:48.337Z,100378.19
2023-02-14T21:54:17.556Z,100382.47
2023-02-14T21:56:45.140Z,100378.22
2023-02-14T21:59:12.733Z,100375.66
2023-02-14T22:01:42.123Z,100379.03
2023-02-14T22:04:12.107Z,100353.41
2023-02-14T22:06:41.682Z,100377.34
2023-02-14T22:09:10.793Z,100374.78
2023-02-14T22:11:37.738Z,100361.97
2023-02-14T22:14:04.678Z,100328.66
2023-02-14T22:16:31.622Z,100377.34
2023-02-14T22:18:58.489Z,100365.38
2023-02-14T22:21:26.781Z,100362.81
2023-02-14T22:23:55.305Z,100357.69
2023-02-14T22:26:24.244Z,100372.22
2023-02-14T22:28:55.766Z,100356.00
2023-02-14T22:31:24.927Z,100367.94
2023-02-14T22:33:52.036Z,100365.38
2023-02-14T22:36:19.044Z,100380.75
2023-02-14T22:38:46.005Z,100385.88
2023-02-14T22:41:17.000Z,100374.75
2023-02-14T22:43:44.590Z,100370.50
2023-02-14T22:46:24.719Z,100369.63
2023-02-14T22:48:53.371Z,100364.50
2023-02-14T22:51:36.021Z,100349.13
2023-02-14T22:54:09.198Z,100368.75
2023-02-14T22:56:43.402Z,100363.63
2023-02-14T22:59:25.064Z,100368.75
2023-02-14T23:01:53.315Z,100362.75
2023-02-14T23:04:22.280Z,100349.97
2023-02-14T23:06:49.301Z,100358.47
2023-02-14T23:09:16.340Z,100353.34
2023-02-14T23:11:45.337Z,100348.22
2023-02-14T23:14:32.744Z,100361.03
2023-02-14T23:17:18.683Z,100362.72
2023-02-14T23:20:05.036Z,100360.16
2023-02-14T23:22:38.471Z,100337.06
2023-02-14T23:25:11.273Z,100356.72
2023-02-14T23:27:41.380Z,100322.53
2023-02-14T23:30:12.536Z,100352.44
2023-02-14T23:32:39.396Z,100357.53
2023-02-14T23:35:06.893Z,100353.25
2023-02-14T23:37:33.802Z,100351.56
2023-02-14T23:40:00.685Z,100306.22
2023-02-14T23:42:28.234Z,100354.94
2023-02-14T23:45:15.175Z,100353.25
2023-02-14T23:47:42.086Z,100348.13
2023-02-14T23:50:09.464Z,100337.84
2023-02-14T23:52:38.542Z,100318.13
2023-02-14T23:55:06.308Z,100348.09
2023-02-14T23:57:33.136Z,100341.22
